Chadron Municipal Airport
KCDR : now visible

Airfield :











YOU CAN JOIN US ON...

 
LOGIN :

Register | Disclaimer

   EN    FR    IT 

 









Legend :    VFR   Marginal VFR   IFR   Intensive IFR   Very Intensive IFR
Visi :
Ceiling :
>= 8 km
>= 3000ft
5 to 8 km
1000 to 3000 ft
1500m to 5 km
500 to 1000 ft
800 to 1500m
200 to 500 ft
< 800m
< 200 ft
Symbols :   Thunderstorms  Fog  Heavy snow  Heavy precipitations  Wind > 20 kt






- Airport Elevation : 3297 ft


KCDR - Chadron Municipal

CURRENT METAR :
  • 151653Z AUTO 24007KT 10SM CLR 09/00 A3008 RMK AO2 SLP204 T00890000

EXPIRED METARs :
  • 151553Z AUTO 24008KT 10SM CLR 06/M01 A3008 RMK AO2 SLP209 T00561006
  • 151453Z AUTO 00000KT 10SM CLR 00/M03 A3008 RMK AO2 SLP220 T00001028 55000

TAF KCDR
Valid from the 15 at 18:00 until the 16 at 18:00 UTC


151730Z 1518/1618 24007KT P6SM BKN150
FM161500 35010KT P6SM OVC030



MET'MAP, your aeronautical weather chart ! - Copyright ORBIFLY December 2007 - Disclaimer

ORBIFLY MET'MAP TEAM :

Programming & Development : Alexandra Zaïnal
Concept & Development : Baudouin d'Aumeries
Co-Development & Prog : Marc-Olivier Méhu
Technical & hardware support : Manuel Goepfert

Contact : metmap@orbifly.com




SOURCES & CREDITS :

   NOAA       Earth
Advisory